Time;durP1;ratioP1;P1;durP2;ratioP2;P2;SDS_P1;SDS_P2;PMS_P1;PMS_P2;Temp;Humidity;BMP_temperature;BMP_pressure;BME280_temperature;BME280_humidity;BME280_pressure;Samples;Min_cycle;Max_cycle;Signal;HPM_P1;HPM_P2
2023/02/14 14:00:24;;;;;;;2.00;1.80;;;4.30;94.10;;;;;;1958390;72;25558;-63
2023/02/14 14:02:55;;;;;;;4.00;1.90;;;4.30;94.20;;;;;;1916033;74;21197;-63
2023/02/14 14:05:36;;;;;;;3.67;2.60;;;4.30;94.20;;;;;;1917713;74;21150;-64
2023/02/14 14:08:28;;;;;;;1.70;1.42;;;4.40;94.10;;;;;;1917608;75;21082;-62
2023/02/14 14:10:59;;;;;;;2.15;1.98;;;4.40;94.30;;;;;;1917514;75;21113;-61
2023/02/14 14:13:52;;;;;;;4.35;2.33;;;4.40;94.20;;;;;;1917810;75;21019;-62
2023/02/14 14:16:26;;;;;;;2.87;2.20;;;4.40;94.10;;;;;;1917658;75;21199;-63
2023/02/14 14:19:03;;;;;;;;;;;4.40;94.10;;;;;;1920433;75;21193;-62
2023/02/14 14:21:35;;;;;;;4.20;3.05;;;4.50;94.20;;;;;;1917673;75;20748;-64
2023/02/14 14:24:15;;;;;;;3.08;2.35;;;4.50;94.10;;;;;;1917694;75;21659;-64
2023/02/14 14:26:53;;;;;;;5.92;3.22;;;4.50;94.00;;;;;;1917459;75;21524;-63
2023/02/14 14:29:58;;;;;;;4.95;3.05;;;4.50;94.00;;;;;;1917482;74;21295;-64
2023/02/14 14:32:35;;;;;;;5.08;3.62;;;4.50;94.00;;;;;;1918766;75;21126;-65
2023/02/14 14:35:14;;;;;;;4.22;2.67;;;4.60;93.80;;;;;;1918429;75;21596;-66
2023/02/14 14:37:54;;;;;;;5.67;3.52;;;4.60;93.80;;;;;;1918489;75;21075;-65
2023/02/14 14:40:34;;;;;;;4.33;3.10;;;4.60;93.90;;;;;;1918458;75;21122;-64
2023/02/14 14:43:19;;;;;;;12.58;3.45;;;4.60;93.80;;;;;;1917338;74;21146;-64
2023/02/14 14:45:51;;;;;;;4.95;3.35;;;4.60;93.80;;;;;;1918288;74;21572;-64
2023/02/14 14:48:39;;;;;;;5.53;4.28;;;4.60;93.90;;;;;;1918376;75;21509;-64
2023/02/14 14:51:10;;;;;;;5.08;3.08;;;4.60;93.90;;;;;;1918343;75;21556;-65
2023/02/14 14:53:43;;;;;;;5.53;3.20;;;4.70;93.90;;;;;;1917970;74;21047;-64
2023/02/14 14:56:23;;;;;;;4.58;2.95;;;4.80;93.80;;;;;;1918432;75;21047;-64
2023/02/14 14:58:53;;;;;;;4.42;2.20;;;4.80;93.70;;;;;;1919449;74;21066;-64
2023/02/14 15:01:39;;;;;;;4.15;2.98;;;4.90;93.60;;;;;;1925425;74;21151;-65
2023/02/14 15:04:14;;;;;;;3.45;2.45;;;4.90;93.60;;;;;;1925471;74;21007;-65
2023/02/14 15:06:43;;;;;;;5.05;2.15;;;4.90;93.50;;;;;;1925367;74;21120;-64
2023/02/14 15:09:14;;;;;;;2.55;2.00;;;4.90;93.60;;;;;;1925455;74;21070;-64
2023/02/14 15:14:33;;;;;;;4.30;2.70;;;4.80;93.50;;;;;;1924735;74;21235;-64
2023/02/14 15:17:05;;;;;;;4.10;2.40;;;4.70;93.50;;;;;;1924930;74;21159;-64
2023/02/14 15:19:43;;;;;;;3.12;2.55;;;4.60;93.50;;;;;;1924806;74;21074;-64
2023/02/14 15:22:23;;;;;;;3.35;2.47;;;4.60;93.60;;;;;;1924322;74;21133;-64
2023/02/14 15:24:53;;;;;;;4.40;2.65;;;4.50;93.60;;;;;;1924438;74;21130;-65
2023/02/14 15:27:24;;;;;;;6.45;3.15;;;4.50;93.70;;;;;;1924877;74;21155;-64
2023/02/14 15:30:07;;;;;;;6.42;3.33;;;4.50;93.80;;;;;;1924802;74;21078;-64
2023/02/14 15:32:37;;;;;;;4.30;3.20;;;4.50;93.70;;;;;;1924838;74;21074;-64
2023/02/14 15:35:07;;;;;;;7.15;3.42;;;4.50;93.70;;;;;;1924957;74;21023;-65
2023/02/14 15:37:37;;;;;;;5.90;3.37;;;4.60;93.70;;;;;;1924747;74;21157;-64
2023/02/14 15:40:07;;;;;;;5.35;2.70;;;4.60;93.90;;;;;;1924794;74;21007;-65
2023/02/14 15:42:39;;;;;;;4.25;3.52;;;4.60;93.70;;;;;;1924751;74;21058;-65
2023/02/14 15:45:29;;;;;;;7.33;3.62;;;4.60;93.50;;;;;;1924798;74;21057;-64
2023/02/14 15:48:03;;;;;;;5.53;3.33;;;4.60;93.60;;;;;;1924903;74;21125;-64
2023/02/14 15:50:35;;;;;;;8.85;4.17;;;4.70;93.60;;;;;;1924817;74;21501;-64
2023/02/14 15:53:07;;;;;;;5.62;3.37;;;4.70;93.60;;;;;;1924710;74;21066;-64
2023/02/14 15:55:36;;;;;;;4.78;3.45;;;4.70;93.60;;;;;;1924641;74;21580;-64
2023/02/14 15:58:08;;;;;;;5.35;2.70;;;4.70;93.40;;;;;;1924775;74;21074;-64
2023/02/14 16:00:39;;;;;;;4.42;2.60;;;4.70;93.50;;;;;;1866677;73;21287;-64
2023/02/14 16:03:10;;;;;;;3.00;2.60;;;4.60;93.40;;;;;;1906863;75;21090;-64
2023/02/14 16:05:42;;;;;;;4.62;2.83;;;4.70;93.50;;;;;;1906789;74;21258;-64
2023/02/14 16:08:31;;;;;;;5.65;3.40;;;4.70;93.50;;;;;;1906305;75;21199;-64
2023/02/14 16:11:03;;;;;;;4.03;3.40;;;4.60;93.50;;;;;;1906861;75;21024;-64
2023/02/14 16:13:35;;;;;;;3.77;3.10;;;4.60;93.50;;;;;;1906899;75;21020;-64
2023/02/14 16:16:09;;;;;;;12.05;4.33;;;4.50;93.60;;;;;;1874129;76;21151;-63
2023/02/14 16:18:52;;;;;;;12.20;6.97;;;4.50;93.60;;;;;;1867753;77;21586;-64
2023/02/14 16:21:26;;;;;;;9.73;6.40;;;4.50;93.60;;;;;;1907058;75;21117;-65
2023/02/14 16:24:10;;;;;;;4.65;3.35;;;4.50;93.60;;;;;;1907067;75;21238;-65
2023/02/14 16:26:41;;;;;;;6.35;2.58;;;4.50;93.70;;;;;;1906845;75;21087;-65
2023/02/14 16:29:12;;;;;;;4.78;3.65;;;4.50;93.50;;;;;;1906845;75;21134;-63
2023/02/14 16:31:47;;;;;;;6.55;4.30;;;4.50;93.50;;;;;;1906926;75;21037;-63
2023/02/14 16:34:16;;;;;;;7.15;4.20;;;4.50;93.60;;;;;;1906937;75;21121;-63
2023/02/14 16:36:45;;;;;;;13.88;8.98;;;4.50;93.60;;;;;;1906963;75;21020;-63
2023/02/14 16:39:16;;;;;;;6.40;4.45;;;4.50;93.60;;;;;;1906915;75;21274;-63
2023/02/14 16:41:47;;;;;;;6.45;4.25;;;4.50;93.70;;;;;;1907176;75;21281;-63
2023/02/14 16:44:19;;;;;;;5.80;4.22;;;4.50;93.60;;;;;;1907054;75;21138;-63
2023/02/14 16:46:48;;;;;;;5.97;3.87;;;4.50;93.50;;;;;;1907083;75;21101;-63
2023/02/14 16:49:17;;;;;;;4.90;3.58;;;4.50;93.40;;;;;;1874254;76;21065;-63
2023/02/14 16:51:47;;;;;;;5.47;3.33;;;4.50;93.50;;;;;;1867771;77;21135;-63
2023/02/14 16:54:21;;;;;;;5.20;2.92;;;4.50;93.50;;;;;;1907007;75;21116;-63
2023/02/14 16:56:55;;;;;;;8.03;4.12;;;4.50;93.50;;;;;;1906968;75;21082;-63
2023/02/14 16:59:24;;;;;;;5.78;3.80;;;4.40;93.60;;;;;;1906151;74;21668;-62
2023/02/14 17:01:54;;;;;;;5.58;4.28;;;4.50;93.50;;;;;;1900386;75;21140;-63
2023/02/14 17:04:23;;;;;;;7.53;3.70;;;4.50;93.50;;;;;;1900297;75;21154;-63
2023/02/14 17:06:56;;;;;;;5.17;4.00;;;4.60;93.50;;;;;;1900370;75;21049;-63
2023/02/14 17:09:28;;;;;;;7.05;4.20;;;4.70;93.80;;;;;;1900390;75;21510;-65
2023/02/14 17:12:00;;;;;;;6.65;3.55;;;4.80;93.60;;;;;;1900275;75;21110;-65
2023/02/14 17:14:32;;;;;;;3.87;3.27;;;4.80;93.60;;;;;;1900343;75;21463;-63
2023/02/14 17:17:03;;;;;;;5.83;3.72;;;4.80;93.50;;;;;;1900028;75;21703;-63
2023/02/14 17:19:33;;;;;;;5.10;3.47;;;4.80;93.50;;;;;;1899370;75;21303;-63
2023/02/14 17:22:03;;;;;;;4.35;2.90;;;4.90;93.50;;;;;;1900192;75;21090;-63
2023/02/14 17:24:32;;;;;;;4.03;3.15;;;4.90;93.20;;;;;;1900241;75;21066;-63
2023/02/14 17:27:01;;;;;;;8.08;3.62;;;4.80;93.10;;;;;;1900218;75;21585;-63
2023/02/14 17:29:30;;;;;;;3.80;2.65;;;4.70;93.00;;;;;;1900251;75;21368;-63
2023/02/14 17:31:59;;;;;;;5.53;2.83;;;4.60;93.10;;;;;;1900222;75;21094;-63
2023/02/14 17:34:33;;;;;;;2.55;2.35;;;4.50;93.10;;;;;;1900347;75;21101;-66
2023/02/14 17:37:02;;;;;;;4.97;2.35;;;4.40;93.20;;;;;;1899656;75;21215;-66
2023/02/14 17:39:34;;;;;;;2.00;1.80;;;4.30;93.20;;;;;;1900224;75;21152;-66
2023/02/14 17:42:06;;;;;;;5.00;2.70;;;4.20;93.20;;;;;;1900124;75;21235;-66
2023/02/14 17:44:36;;;;;;;1.77;1.42;;;4.10;93.30;;;;;;1900258;75;21072;-64
2023/02/14 17:47:06;;;;;;;2.98;2.15;;;4.00;93.30;;;;;;1900254;75;21255;-64
2023/02/14 17:49:37;;;;;;;1.62;1.40;;;4.00;93.30;;;;;;1900234;75;21082;-64
2023/02/14 17:52:06;;;;;;;1.67;1.57;;;3.90;93.50;;;;;;1861864;77;21128;-67
2023/02/14 17:54:39;;;;;;;1.80;1.47;;;3.80;93.40;;;;;;1861486;77;21181;-66
2023/02/14 17:57:11;;;;;;;2.95;2.15;;;3.70;93.50;;;;;;1824564;79;21165;-66
2023/02/14 17:59:41;;;;;;;1.67;1.57;;;3.70;93.60;;;;;;1860934;77;21053;-66
2023/02/14 18:02:10;;;;;;;2.70;2.15;;;3.60;93.50;;;;;;1891486;76;21412;-66
2023/02/14 18:04:39;;;;;;;2.05;1.85;;;3.60;93.60;;;;;;1891452;75;21524;-67
2023/02/14 18:07:08;;;;;;;2.62;2.42;;;3.60;93.70;;;;;;1891393;76;21074;-66
2023/02/14 18:09:37;;;;;;;2.22;2.02;;;3.50;93.70;;;;;;1891587;76;21270;-66
2023/02/14 18:12:10;;;;;;;2.15;1.95;;;3.50;93.90;;;;;;1891342;76;21256;-67
2023/02/14 18:14:53;;;;;;;;;;;;;;;;;;;;;
2023/02/14 18:17:17;;;;;;;3.15;2.05;;;3.50;93.80;;;;;;1881490;76;21181;-66
2023/02/14 18:19:48;;;;;;;4.47;2.37;;;3.40;93.80;;;;;;1887169;76;21496;-66
2023/02/14 18:22:17;;;;;;;2.98;2.33;;;3.40;94.10;;;;;;1891614;75;21017;-67
2023/02/14 18:24:46;;;;;;;3.22;2.60;;;3.40;93.90;;;;;;1891331;76;21203;-66
2023/02/14 18:27:16;;;;;;;2.50;2.30;;;3.40;94.00;;;;;;1891365;76;21143;-66
2023/02/14 18:29:46;;;;;;;2.15;1.60;;;3.40;93.80;;;;;;1891275;75;21150;-67
2023/02/14 18:32:17;;;;;;;2.17;1.92;;;3.40;94.00;;;;;;1891511;76;21192;-66
2023/02/14 18:34:45;;;;;;;2.47;2.00;;;3.40;93.90;;;;;;1891322;76;21261;-66
2023/02/14 18:37:21;;;;;;;2.25;2.02;;;3.40;94.30;;;;;;1891489;76;21239;-66
2023/02/14 18:39:50;;;;;;;4.10;3.15;;;3.30;94.10;;;;;;1885647;76;21180;-66
2023/02/14 18:42:19;;;;;;;2.08;1.90;;;3.20;94.10;;;;;;1891330;76;21406;-66
2023/02/14 18:44:49;;;;;;;4.28;3.08;;;3.20;94.10;;;;;;1891389;76;21139;-66
2023/02/14 18:47:20;;;;;;;2.47;2.10;;;3.20;94.20;;;;;;1891509;76;21242;-66
2023/02/14 18:49:54;;;;;;;4.08;3.27;;;3.20;94.40;;;;;;1891470;75;21292;-66
2023/02/14 18:52:23;;;;;;;6.65;3.70;;;3.10;94.10;;;;;;1891346;76;21101;-66
2023/02/14 18:54:52;;;;;;;2.92;2.62;;;3.20;94.20;;;;;;1891591;76;21159;-66
2023/02/14 18:57:23;;;;;;;3.12;2.83;;;3.10;94.30;;;;;;1891542;76;21146;-66
2023/02/14 18:59:59;;;;;;;3.72;2.83;;;3.10;94.10;;;;;;1891541;76;21643;-66
2023/02/14 19:02:28;;;;;;;;;;;3.10;94.30;;;;;;1894265;76;21260;-66
2023/02/14 19:04:58;;;;;;;6.00;3.67;;;3.00;94.30;;;;;;1891504;76;20719;-66
2023/02/14 19:07:27;;;;;;;4.83;2.95;;;3.00;94.30;;;;;;1891541;75;21106;-64
2023/02/14 19:09:57;;;;;;;5.10;3.90;;;3.00;94.50;;;;;;1891446;76;21242;-64
2023/02/14 19:12:26;;;;;;;7.85;5.15;;;2.90;94.30;;;;;;1891509;76;21346;-64
2023/02/14 19:14:55;;;;;;;4.78;3.87;;;2.90;94.20;;;;;;1891541;76;21191;-66
2023/02/14 19:17:29;;;;;;;7.17;5.12;;;2.90;94.60;;;;;;1891691;76;21102;-66
2023/02/14 19:19:58;;;;;;;4.47;2.92;;;2.90;94.50;;;;;;1891465;75;21234;-66
2023/02/14 19:22:27;;;;;;;7.72;5.75;;;2.90;94.80;;;;;;1891540;76;21199;-66
2023/02/14 19:24:56;;;;;;;6.37;5.00;;;2.80;94.70;;;;;;1891504;76;21188;-66
2023/02/14 19:27:28;;;;;;;18.17;6.40;;;2.80;94.80;;;;;;1891522;76;21191;-66
2023/02/14 19:29:57;;;;;;;9.55;5.95;;;2.80;94.60;;;;;;1891489;76;21166;-66
2023/02/14 19:32:26;;;;;;;7.00;4.50;;;2.80;94.60;;;;;;1891489;76;21215;-66
2023/02/14 19:34:59;;;;;;;7.47;3.47;;;2.80;94.70;;;;;;1891535;76;21307;-66
2023/02/14 19:37:25;;;;;;;8.63;5.67;;;2.80;94.90;;;;;;1890524;76;21731;-66
2023/02/14 19:39:55;;;;;;;10.90;6.55;;;2.80;94.80;;;;;;1891806;76;21243;-66
2023/02/14 19:42:23;;;;;;;9.80;6.15;;;2.70;94.80;;;;;;1891726;76;21066;-66
2023/02/14 19:44:52;;;;;;;8.85;5.97;;;2.70;94.90;;;;;;1891714;76;21089;-63
2023/02/14 19:47:23;;;;;;;9.10;5.72;;;2.70;94.80;;;;;;1891687;75;21260;-63
2023/02/14 19:49:52;;;;;;;8.75;6.80;;;2.80;94.70;;;;;;1891671;76;21453;-63
2023/02/14 19:52:21;;;;;;;11.20;6.55;;;2.70;94.80;;;;;;1891730;75;21191;-64
2023/02/14 19:54:50;;;;;;;9.05;6.08;;;2.80;94.80;;;;;;1891737;75;21061;-66
2023/02/14 19:57:19;;;;;;;9.73;6.50;;;2.80;94.80;;;;;;1891698;76;21094;-66
2023/02/14 19:59:48;;;;;;;10.78;5.55;;;2.80;94.80;;;;;;1891665;76;21268;-66
2023/02/14 20:02:18;;;;;;;11.30;7.37;;;2.80;94.70;;;;;;1891656;75;21389;-66
2023/02/14 20:04:47;;;;;;;9.03;6.30;;;2.80;94.60;;;;;;1891611;75;21138;-65
2023/02/14 20:07:16;;;;;;;14.65;6.90;;;2.80;94.90;;;;;;1891684;75;21329;-65
2023/02/14 20:09:45;;;;;;;11.10;7.60;;;2.80;95.00;;;;;;1891468;76;21399;-64
2023/02/14 20:12:14;;;;;;;9.03;6.33;;;2.80;95.00;;;;;;1891713;76;21362;-65
2023/02/14 20:14:43;;;;;;;9.30;5.95;;;2.70;95.10;;;;;;1891717;76;21166;-65
2023/02/14 20:17:13;;;;;;;15.93;8.20;;;2.80;94.90;;;;;;1891605;75;21150;-65
2023/02/14 20:19:42;;;;;;;12.88;8.80;;;2.80;94.90;;;;;;1891681;75;21173;-65
2023/02/14 20:22:11;;;;;;;15.32;8.43;;;2.80;94.80;;;;;;1891556;76;21423;-65
2023/02/14 20:24:41;;;;;;;13.03;8.35;;;2.80;94.90;;;;;;1891543;76;21247;-65
2023/02/14 20:27:10;;;;;;;21.30;8.35;;;2.90;94.70;;;;;;1891579;76;21204;-65
2023/02/14 20:29:41;;;;;;;14.47;8.23;;;3.00;94.90;;;;;;1891633;76;21358;-65
2023/02/14 20:32:09;;;;;;;12.43;7.30;;;3.10;94.90;;;;;;1891543;75;21605;-65
2023/02/14 20:34:39;;;;;;;13.28;7.33;;;3.20;94.70;;;;;;1891558;76;21277;-65
2023/02/14 20:37:10;;;;;;;12.47;8.23;;;3.40;94.60;;;;;;1891647;76;21233;-64
2023/02/14 20:39:39;;;;;;;11.30;7.15;;;3.50;94.50;;;;;;1891617;76;21098;-65
2023/02/14 20:42:08;;;;;;;12.00;7.15;;;3.60;94.60;;;;;;1891692;76;21118;-64
2023/02/14 20:44:37;;;;;;;11.03;7.37;;;3.80;94.40;;;;;;1891680;75;21170;-64
2023/02/14 20:47:06;;;;;;;12.82;7.33;;;3.80;94.30;;;;;;1891629;76;21081;-65
2023/02/14 20:49:35;;;;;;;8.18;5.65;;;3.90;94.10;;;;;;1891522;76;21264;-65
2023/02/14 20:52:04;;;;;;;9.63;6.65;;;3.90;94.10;;;;;;1891718;76;21577;-64
2023/02/14 20:54:33;;;;;;;12.15;7.45;;;3.90;93.90;;;;;;1891701;75;21017;-64
2023/02/14 20:57:03;;;;;;;11.43;6.62;;;3.80;93.60;;;;;;1891729;76;21200;-65
2023/02/14 20:59:32;;;;;;;12.82;7.05;;;3.70;93.60;;;;;;1891773;75;21170;-64
2023/02/14 21:02:01;;;;;;;16.42;7.50;;;3.60;93.70;;;;;;1891689;76;21064;-64
2023/02/14 21:04:30;;;;;;;12.35;7.30;;;3.50;93.80;;;;;;1891698;75;21156;-65
2023/02/14 21:07:03;;;;;;;11.83;7.00;;;3.50;93.90;;;;;;1891695;76;21159;-65
2023/02/14 21:09:31;;;;;;;14.23;8.45;;;3.50;94.10;;;;;;1891295;76;21564;-64
2023/02/14 21:12:00;;;;;;;12.07;7.25;;;3.60;94.50;;;;;;1891594;75;21204;-64
2023/02/14 21:14:30;;;;;;;10.38;6.53;;;3.60;94.50;;;;;;1891580;76;21021;-64
2023/02/14 21:17:01;;;;;;;15.03;8.63;;;3.70;94.20;;;;;;1891705;75;21147;-64
2023/02/14 21:19:30;;;;;;;11.90;7.12;;;3.80;94.10;;;;;;1891141;76;21032;-64
2023/02/14 21:21:59;;;;;;;11.88;7.53;;;3.70;94.10;;;;;;1891568;76;21174;-64
2023/02/14 21:24:29;;;;;;;11.48;7.05;;;3.70;94.10;;;;;;1891622;76;21400;-64
2023/02/14 21:26:58;;;;;;;15.30;7.70;;;3.70;93.90;;;;;;1891545;76;21119;-64
2023/02/14 21:29:27;;;;;;;10.68;7.58;;;3.70;94.00;;;;;;1891657;75;21057;-64
2023/02/14 21:31:59;;;;;;;11.30;7.47;;;3.70;93.90;;;;;;1891652;76;21077;-64
2023/02/14 21:34:28;;;;;;;12.47;7.17;;;3.60;93.90;;;;;;1891678;76;21070;-64
2023/02/14 21:36:57;;;;;;;12.93;8.25;;;3.50;93.90;;;;;;1891626;75;21081;-65
2023/02/14 21:39:26;;;;;;;15.38;7.72;;;3.50;94.00;;;;;;1891491;76;21315;-64
2023/02/14 21:41:55;;;;;;;15.38;9.25;;;3.40;94.00;;;;;;1891585;76;21077;-64
2023/02/14 21:47:11;;;;;;;12.53;6.95;;;3.40;94.20;;;;;;1891687;76;21236;-64
2023/02/14 21:52:29;;;;;;;13.20;8.05;;;3.50;94.40;;;;;;1891558;76;21291;-64
2023/02/14 21:54:57;;;;;;;14.00;8.18;;;3.60;94.50;;;;;;1891548;76;21635;-65
2023/02/14 21:57:26;;;;;;;14.15;8.28;;;3.80;94.50;;;;;;1891583;76;21588;-65
2023/02/14 21:59:55;;;;;;;11.85;7.58;;;3.90;94.30;;;;;;1891573;76;21112;-64
2023/02/14 22:02:24;;;;;;;10.35;6.95;;;3.90;94.10;;;;;;1888939;76;21123;-64
2023/02/14 22:04:54;;;;;;;15.28;7.53;;;4.00;94.10;;;;;;1871880;77;21553;-64
2023/02/14 22:07:24;;;;;;;15.50;8.30;;;4.10;94.10;;;;;;1840603;78;21030;-64
2023/02/14 22:09:53;;;;;;;15.70;8.50;;;4.20;94.10;;;;;;1840410;78;21084;-64
2023/02/14 22:12:22;;;;;;;12.23;6.97;;;4.20;94.00;;;;;;1840450;78;21276;-64
2023/02/14 22:14:51;;;;;;;12.23;7.40;;;4.30;94.00;;;;;;1840415;78;21116;-64
2023/02/14 22:17:20;;;;;;;14.28;7.87;;;4.40;94.00;;;;;;1840482;78;21132;-65
2023/02/14 22:19:49;;;;;;;12.58;7.42;;;4.40;93.80;;;;;;1840416;78;21112;-64
2023/02/14 22:22:18;;;;;;;10.85;7.22;;;4.40;93.90;;;;;;1840655;78;21038;-64
2023/02/14 22:24:47;;;;;;;18.35;7.97;;;4.40;93.90;;;;;;1840519;78;21120;-65
2023/02/14 22:27:16;;;;;;;12.03;8.30;;;4.40;93.90;;;;;;1840683;78;21183;-64
2023/02/14 22:29:45;;;;;;;11.50;8.05;;;4.40;93.90;;;;;;1840636;78;21152;-65
2023/02/14 22:32:14;;;;;;;14.18;8.10;;;4.40;93.50;;;;;;1840570;78;21082;-65
2023/02/14 22:34:43;;;;;;;11.35;7.42;;;4.30;93.20;;;;;;1840538;78;21128;-64
2023/02/14 22:37:12;;;;;;;14.85;7.97;;;4.10;93.20;;;;;;1840530;78;21187;-65
2023/02/14 22:39:41;;;;;;;13.25;7.95;;;4.00;93.80;;;;;;1840667;78;21104;-64
2023/02/14 22:42:10;;;;;;;16.65;8.60;;;4.00;94.10;;;;;;1840502;78;21673;-64
2023/02/14 22:44:41;;;;;;;15.58;8.88;;;4.00;94.10;;;;;;1839122;78;21223;-64
2023/02/14 22:47:10;;;;;;;14.30;8.83;;;4.00;94.00;;;;;;1840565;78;21076;-64
2023/02/14 22:49:39;;;;;;;15.18;8.63;;;4.00;94.10;;;;;;1840621;78;21034;-65
2023/02/14 22:52:08;;;;;;;13.18;7.40;;;4.10;94.10;;;;;;1840576;77;21092;-64
2023/02/14 22:54:37;;;;;;;12.13;7.08;;;4.20;94.10;;;;;;1840509;78;21151;-64
2023/02/14 22:57:06;;;;;;;12.00;8.18;;;4.20;94.10;;;;;;1840606;78;21610;-64
2023/02/14 22:59:35;;;;;;;12.75;6.58;;;4.30;94.00;;;;;;1840536;78;21104;-65
2023/02/14 23:02:04;;;;;;;10.93;6.87;;;4.40;94.00;;;;;;1840516;78;21162;-65
2023/02/14 23:04:34;;;;;;;10.45;6.22;;;4.40;94.00;;;;;;1837373;78;21126;-65
2023/02/14 23:07:03;;;;;;;14.03;7.50;;;4.40;93.70;;;;;;1867757;77;21137;-64
2023/02/14 23:09:32;;;;;;;14.65;8.40;;;4.40;93.80;;;;;;1906870;75;21191;-64
2023/02/14 23:12:01;;;;;;;14.25;7.40;;;4.30;93.70;;;;;;1874042;76;20999;-64
2023/02/14 23:22:37;;;;;;;10.40;6.95;;;4.20;93.90;;;;;;1906953;75;21223;-64
2023/02/14 23:25:09;;;;;;;10.95;7.08;;;4.20;93.90;;;;;;1906832;75;21145;-64
2023/02/14 23:27:41;;;;;;;13.38;7.65;;;4.20;93.90;;;;;;1906029;75;21068;-64
2023/02/14 23:30:13;;;;;;;11.20;6.58;;;4.20;93.80;;;;;;1906817;75;21036;-64
2023/02/14 23:32:42;;;;;;;11.73;7.22;;;4.20;93.70;;;;;;1907058;75;21471;-64
2023/02/14 23:35:12;;;;;;;14.90;7.28;;;4.10;93.90;;;;;;1906846;75;21629;-64
2023/02/14 23:37:41;;;;;;;14.47;6.95;;;4.10;93.60;;;;;;1894977;76;21155;-64
2023/02/14 23:40:10;;;;;;;11.57;7.78;;;4.00;93.80;;;;;;1874114;76;20995;-64
2023/02/14 23:42:39;;;;;;;9.85;6.70;;;4.00;94.10;;;;;;1867614;77;21003;-64
2023/02/14 23:47:57;;;;;;;11.05;6.97;;;4.10;94.00;;;;;;1906948;75;21044;-64
2023/02/14 23:50:26;;;;;;;12.75;6.60;;;4.10;93.90;;;;;;1906701;75;21163;-64
2023/02/14 23:52:56;;;;;;;11.30;5.95;;;4.10;93.80;;;;;;1906798;75;21144;-64
2023/02/14 23:55:25;;;;;;;10.25;6.05;;;4.10;93.80;;;;;;1906841;75;21033;-64
2023/02/14 23:57:54;;;;;;;12.60;7.08;;;4.10;93.90;;;;;;1906961;75;21036;-64
